Latest Weather Observations for Tennant Creek

IDD60801

Issued at 10:21 am CST Thursday 21 November 2019 (issued every 10 minutes, with the page automatically refreshed every 10 minutes)

About weather observations | Map of weather stations | Latest weather observations for NT | Other Formats
Station Details ID: 015135 Name: TENNANT CREEK AIRPORT Lat: -19.64 Lon: 134.18 Height: 375.7 m
Data from the previous 72 hours. | See also: Recent months at Tennant Creek
Date/Time
CST
Temp
°C
App
Temp
°C
Dew
Point
°C
Rel
Hum
%
Delta-T
°C
Wind Press
QNH
hPa
Press
MSL
hPa
Rain since
9am
mm
Dir  Spd
km/h
Gust
km/h
Spd
kts
Gust
kts
21/10:00am 37.6 32.2 10.8 20 16.1 NNW 30 41 16 22 1010.8 1007.9 0.0
21/09:30am 36.8 30.7 11.6 22 15.3 NNW 35 48 19 26 1011.0 1008.2 0.0
21/09:00am 35.4 29.3 11.7 23 14.3 N 35 44 19 24 1011.3 1008.5 0.0
21/08:30am 34.4 29.2 12.7 27 13.2 NNW 32 44 17 24 1011.4 1008.6 0.0
21/08:18am 33.9 28.7 12.8 28 12.9 NNW 32 50 17 27 1011.4 1008.6 0.0
21/08:00am 32.9 27.8 13.0 30 12.1 NNW 32 48 17 26 1011.3 1008.5 0.0
21/07:30am 30.9 26.9 11.8 31 11.3 NNW 24 32 13 17 1011.1 1008.3 0.0
21/07:00am 29.9 26.3 9.9 29 11.5 N 19 26 10 14 1011.0 1008.2 0.0
21/06:30am 28.8 25.4 9.0 29 11.1 N 17 22 9 12 1010.5 1007.6 0.0
21/06:00am 27.7 24.3 9.0 31 10.5 N 17 26 9 14 1009.8 1006.9 0.0
21/05:30am 27.7 24.2 8.6 30 10.6 N 17 24 9 13 1009.4 1006.5 0.0
21/05:00am 28.2 24.3 8.5 29 10.9 NNE 19 28 10 15 1008.8 1006.0 0.0
21/04:30am 29.4 25.0 9.0 28 11.5 N 22 30 12 16 1008.4 1005.5 0.0
21/04:00am 29.1 24.4 7.7 26 11.8 N 22 32 12 17 1008.3 1005.4 0.0
21/03:30am 30.6 26.4 8.3 25 12.5 N 20 28 11 15 1008.0 1005.1 0.0
21/03:00am 31.7 26.7 8.0 23 13.3 N 24 30 13 16 1007.6 1004.7 0.0
21/02:30am 31.9 26.8 7.5 22 13.6 N 24 33 13 18 1007.5 1004.6 0.0
21/02:00am 33.0 26.8 6.3 19 14.7 N 28 37 15 20 1007.5 1004.6 0.0
21/01:30am 32.5 28.7 7.4 21 14.0 N 17 24 9 13 1007.9 1005.0 0.0
21/01:00am 31.9 28.0 6.9 21 13.8 N 17 19 9 10 1008.2 1005.3 0.0
21/12:30am 32.9 28.6 7.0 20 14.4 N 19 24 10 13 1008.4 1005.5 0.0
21/12:00am 33.4 29.4 6.6 19 14.9 N 17 22 9 12 1008.7 1005.9 0.0
 
Date/Time
CST
Temp
°C
App
Temp
°C
Dew
Point
°C
Rel
Hum
%
Delta-T
°C
Wind Press
QNH
hPa
Press
MSL
hPa
Rain since
9am
mm
Dir  Spd
km/h
Gust
km/h
Spd
kts
Gust
kts
20/11:30pm 33.9 29.3 6.3 18 15.3 N 20 26 11 14 1009.0 1006.2 0.0
20/11:00pm 34.4 29.6 5.8 17 15.7 N 20 28 11 15 1009.3 1006.4 0.0
20/10:30pm 32.7 28.2 -2.9 10 16.8 NNE 11 13 6 7 1009.1 1006.3 0.0
20/10:00pm 32.5 28.0 -3.0 10 16.7 NNE 11 13 6 7 1008.9 1006.1 0.0
20/09:30pm 32.9 27.9 -4.1 9 17.2 NE 13 15 7 8 1008.7 1005.9 0.0
20/09:00pm 33.1 28.9 -4.0 9 17.3 NE 9 11 5 6 1008.4 1005.5 0.0
20/08:30pm 33.3 29.5 -3.8 9 17.4 N 7 9 4 5 1008.2 1005.3 0.0
20/08:00pm 34.2 29.9 -4.7 8 18.0 NNE 9 11 5 6 1007.9 1005.0 0.0
20/07:30pm 36.3 31.8 -3.2 8 19.1 N 11 13 6 7 1007.6 1004.7 0.0
20/07:00pm 38.0 33.4 -3.7 7 20.1 N 11 13 6 7 1007.2 1004.3 0.0
20/06:30pm 39.4 34.2 -2.7 7 20.9 N 15 19 8 10 1007.0 1004.1 0.0
20/06:00pm 40.0 35.4 -4.3 6 21.5 N 11 17 6 9 1006.8 1003.9 0.0
20/05:30pm 39.5 35.5 -2.6 7 20.9 NW 9 19 5 10 1006.6 1003.7 0.0
20/05:00pm 40.2 35.2 -4.2 6 21.6 NNW 13 19 7 10 1006.6 1003.7 0.0
20/04:30pm 41.1 36.2 -3.6 6 22.1 N 13 20 7 11 1006.5 1003.6 0.0
20/04:00pm 41.0 36.8 -3.6 6 22.0 NE 9 17 5 9 1006.6 1003.7 0.0
20/03:30pm 40.6 35.3 -3.9 6 21.8 NE 15 28 8 15 1006.8 1003.9 0.0
20/03:00pm 40.8 35.5 -3.8 6 22.0 W 15 24 8 13 1007.0 1004.1 0.0
20/02:30pm 41.5 36.2 -3.3 6 22.3 NNE 15 41 8 22 1007.2 1004.3 0.0
20/02:00pm 40.3 34.9 -4.1 6 21.6 NNE 15 26 8 14 1007.6 1004.7 0.0
20/01:30pm 41.0 36.1 -3.6 6 22.0 NNW 13 26 7 14 1008.1 1005.2 0.0
20/01:00pm 39.5 33.7 -4.7 6 21.2 SE 17 26 9 14 1008.7 1005.9 0.0
20/12:30pm 39.6 34.8 -2.6 7 21.0 SE 13 28 7 15 1009.5 1006.6 0.0
20/12:00pm 39.5 35.5 -2.6 7 20.9 NNW 9 17 5 9 1009.9 1007.0 0.0
20/11:30am 39.0 34.8 -1.2 8 20.3 E 11 19 6 10 1010.4 1007.5 0.0
20/11:00am 39.2 34.1 0.6 9 20.1 N 17 30 9 16 1010.8 1007.9 0.0
20/10:30am 38.1 33.9 3.8 12 18.6 NNW 15 30 8 16 1011.2 1008.4 0.0
20/10:00am 37.2 32.6 6.3 15 17.3 NW 20 32 11 17 1011.5 1008.7 0.0
20/09:30am 36.2 31.6 8.1 18 16.1 N 22 32 12 17 1011.8 1009.0 0.0
20/09:00am 34.9 30.2 7.9 19 15.4 NNW 22 32 12 17 1012.1 1009.2 0.0
20/08:30am 34.0 28.7 8.6 21 14.5 N 26 35 14 19 1011.9 1009.1 0.0
20/08:00am 32.2 27.5 7.8 22 13.7 N 22 30 12 16 1011.7 1008.9 0.0
20/07:30am 30.8 26.1 6.0 21 13.4 N 20 32 11 17 1011.6 1008.8 0.0
20/07:00am 29.2 25.3 3.2 19 13.3 NNE 13 20 7 11 1011.3 1008.5 0.0
20/06:30am 27.4 22.0 -8.2 9 14.7 ENE 13 15 7 8 1011.1 1008.3 0.0
20/06:00am 26.0 20.5 -9.3 9 14.1 E 13 15 7 8 1010.8 1007.9 0.0
20/05:30am 26.3 21.1 -10.5 8 14.4 E 11 13 6 7 1010.5 1007.6 0.0
20/05:00am 26.8 20.9 -10.2 8 14.6 E 15 17 8 9 1010.2 1007.3 0.0
20/04:30am 27.9 21.1 -9.4 8 15.1 E 20 24 11 13 1010.1 1007.2 0.0
20/04:00am 28.1 21.9 -9.2 8 15.2 E 17 22 9 12 1009.8 1006.9 0.0
20/03:30am 27.8 21.6 -9.4 8 15.1 E 17 17 9 9 1009.5 1006.6 0.0
20/03:00am 25.8 20.4 -8.1 10 13.8 ENE 13 17 7 9 1009.6 1006.7 0.0
20/02:30am 26.3 21.6 -9.1 9 14.2 NE 9 11 5 6 1009.4 1006.5 0.0
20/02:00am 26.0 21.3 -9.3 9 14.1 E 9 9 5 5 1009.3 1006.4 0.0
20/01:30am 28.6 23.5 -8.8 8 15.4 SE 11 13 6 7 1009.6 1006.7 0.0
20/01:00am 26.2 21.7 -6.5 11 13.7 SE 9 13 5 7 1009.8 1006.9 0.0
20/12:30am 26.0 21.3 -9.3 9 14.1 SE 9 9 5 5 1010.1 1007.2 0.0
20/12:00am 27.9 23.2 -9.4 8 15.1 SE 9 9 5 5 1010.4 1007.5 0.0
 
Date/Time
CST
Temp
°C
App
Temp
°C
Dew
Point
°C
Rel
Hum
%
Delta-T
°C
Wind Press
QNH
hPa
Press
MSL
hPa
Rain since
9am
mm
Dir  Spd
km/h
Gust
km/h
Spd
kts
Gust
kts
19/11:30pm 31.1 26.1 -8.7 7 16.8 SE 11 13 6 7 1010.7 1007.8 0.0
19/11:00pm 29.8 24.7 -9.7 7 16.2 ESE 11 11 6 6 1010.9 1008.0 0.0
19/10:30pm 30.6 25.5 -9.1 7 16.6 ESE 11 13 6 7 1011.1 1008.3 0.0
19/10:00pm 30.0 25.4 -7.8 8 16.1 ESE 9 11 5 6 1011.0 1008.2 0.0
19/09:30pm 32.3 27.7 -7.8 7 17.4 ESE 9 11 5 6 1010.9 1008.0 0.0
19/09:00pm 31.3 26.6 -8.6 7 16.9 E 9 11 5 6 1010.8 1007.9 0.0
19/08:30pm 32.6 28.0 -7.6 7 17.5 ESE 9 11 5 6 1010.5 1007.6 0.0
19/08:00pm 32.3 27.6 -9.8 6 17.6 ESE 9 9 5 5 1010.3 1007.4 0.0
19/07:30pm 35.3 30.5 -10.0 5 19.4 ESE 9 11 5 6 1010.0 1007.1 0.0
19/07:00pm 36.7 31.6 -9.0 5 20.1 ESE 11 13 6 7 1009.6 1006.7 0.0
19/06:30pm 38.2 33.4 -10.8 4 21.3 SE 9 15 5 8 1009.3 1006.4 0.0
19/06:00pm 38.6 34.2 -10.5 4 21.5 SSE 7 22 4 12 1008.9 1006.1 0.0
19/05:30pm 39.4 34.6 -10.0 4 21.9 E 9 17 5 9 1008.7 1005.9 0.0
19/05:00pm 39.5 34.4 -9.9 4 21.9 ESE 11 17 6 9 1008.5 1005.6 0.0
19/04:30pm 39.4 35.0 -10.0 4 21.9 ENE 7 17 4 9 1008.4 1005.5 0.0
19/04:00pm 39.7 33.4 -9.8 4 22.0 NE 17 28 9 15 1008.5 1005.6 0.0
19/03:30pm 39.6 35.4 -9.9 4 22.0 ENE 6 11 3 6 1008.7 1005.9 0.0
19/03:00pm 39.6 34.1 -9.9 4 22.0 SSE 13 26 7 14 1008.9 1006.1 0.0
19/02:30pm 39.6 35.1 -7.0 5 21.7 SE 9 15 5 8 1009.5 1006.6 0.0
19/02:00pm 39.2 34.3 -7.3 5 21.4 WNW 11 17 6 9 1009.8 1006.9 0.0
19/01:30pm 38.7 32.6 -7.6 5 21.2 ENE 17 30 9 16 1010.4 1007.5 0.0
19/01:00pm 40.1 33.7 -6.7 5 21.9 N 19 28 10 15 1010.9 1008.0 0.0
19/12:30pm 38.7 34.1 -7.6 5 21.2 ENE 9 17 5 9 1011.6 1008.8 0.0
19/12:00pm 37.5 31.0 -8.5 5 20.6 ENE 19 33 10 18 1012.2 1009.3 0.0
19/11:30am 37.1 30.2 -6.4 6 20.0 NE 22 32 12 17 1012.7 1009.8 0.0
19/11:00am 37.6 29.7 -8.4 5 20.6 NE 26 37 14 20 1013.1 1010.2 0.0
19/10:30am 35.8 27.3 -7.3 6 19.4 ENE 30 37 16 20 1013.5 1010.7 0.0
19/10:00am 35.2 27.0 -7.7 6 19.1 E 28 37 15 20 1013.8 1011.0 0.0
19/09:30am 33.9 25.2 -8.7 6 18.4 ENE 30 37 16 20 1014.1 1011.3 0.0
19/09:00am 33.0 24.5 -7.3 7 17.7 E 30 39 16 21 1014.1 1011.3 0.0
19/08:30am 31.7 24.0 -6.6 8 16.8 E 26 35 14 19 1014.1 1011.3 0.0
19/08:00am 30.1 23.2 -6.2 9 15.9 E 22 30 12 16 1014.1 1011.3 0.0
19/07:30am 28.1 22.1 -6.3 10 14.8 E 17 24 9 13 1013.9 1011.1 0.0
19/07:00am 27.2 21.7 -5.8 11 14.2 E 15 19 8 10 1013.9 1011.1 0.0
19/06:30am 25.7 19.7 -6.9 11 13.5 E 17 19 9 10 1013.5 1010.7 0.0
19/06:00am 25.2 19.6 -6.2 12 13.1 ENE 15 17 8 9 1013.1 1010.2 0.0
19/05:30am 25.4 18.8 -7.2 11 13.4 NE 20 28 11 15 1012.8 1009.9 0.0
19/05:00am 25.9 19.3 -6.8 11 13.6 ENE 20 39 11 21 1012.4 1009.5 0.0
19/04:30am 26.4 20.4 -6.4 11 13.8 ESE 17 19 9 10 1011.7 1008.9 0.0
19/04:00am 26.7 21.1 -6.2 11 14.0 ESE 15 17 8 9 1011.5 1008.7 0.0
19/03:30am 26.7 21.1 -6.2 11 14.0 ESE 15 19 8 10 1011.5 1008.7 0.0
19/03:00am 26.9 21.3 -6.0 11 14.1 ESE 15 19 8 10 1011.4 1008.6 0.0
19/02:30am 27.5 21.9 -6.8 10 14.5 ESE 15 19 8 10 1011.4 1008.6 0.0
19/02:00am 27.7 21.7 -6.6 10 14.6 ESE 17 19 9 10 1011.5 1008.7 0.0
19/01:30am 27.6 22.0 -6.7 10 14.6 E 15 19 8 10 1011.6 1008.8 0.0
19/01:00am 28.3 22.7 -6.2 10 14.8 E 15 17 8 9 1011.9 1009.1 0.0
19/12:30am 29.1 23.8 -7.0 9 15.4 ESE 13 15 7 8 1012.2 1009.3 0.0
19/12:00am 29.6 24.0 -6.6 9 15.7 ESE 15 17 8 9 1012.5 1009.6 0.0
 
Date/Time
CST
Temp
°C
App
Temp
°C
Dew
Point
°C
Rel
Hum
%
Delta-T
°C
Wind Press
QNH
hPa
Press
MSL
hPa
Rain since
9am
mm
Dir  Spd
km/h
Gust
km/h
Spd
kts
Gust
kts
18/11:30pm 29.9 24.3 -6.4 9 15.8 ESE 15 19 8 10 1012.8 1009.9 0.0
18/11:00pm 30.1 25.3 -6.2 9 15.9 ESE 11 15 6 8 1013.1 1010.2 0.0
18/10:30pm 30.4 25.5 -7.5 8 16.2 ESE 11 15 6 8 1013.3 1010.4 0.0
18/10:00pm 31.4 26.5 -6.8 8 16.7 ESE 11 13 6 7 1013.1 1010.2 0.0
18/09:30pm 31.7 26.8 -6.6 8 16.8 ESE 11 17 6 9 1013.1 1010.2 0.0
18/09:00pm 32.4 27.4 -7.8 7 17.4 SE 11 15 6 8 1012.8 1009.9 0.0
18/08:30pm 32.8 28.4 -5.7 8 17.3 ESE 9 11 5 6 1012.7 1009.8 0.0
18/08:00pm 33.3 28.8 -7.1 7 17.8 E 9 9 5 5 1012.5 1009.6 0.0
18/07:30pm 34.7 30.3 -6.1 7 18.5 ESE 9 15 5 8 1012.4 1009.5 0.0
18/07:00pm 35.9 30.6 -7.2 6 19.4 SE 13 15 7 8 1012.1 1009.2 0.0
18/06:30pm 36.8 31.6 -6.6 6 19.9 SSE 13 20 7 11 1011.5 1008.7 0.0
18/06:00pm 37.6 32.2 -8.4 5 20.6 SSE 13 15 7 8 1011.2 1008.4 0.0
18/05:30pm 38.0 31.5 -8.1 5 20.8 SE 19 26 10 14 1011.0 1008.2 0.0
18/05:00pm 38.5 33.9 -7.8 5 21.1 SW 9 13 5 7 1010.9 1008.0 0.0
18/04:30pm 39.2 33.1 -7.3 5 21.4 SE 17 37 9 20 1011.0 1008.2 0.0
18/04:00pm 37.8 32.4 -8.3 5 20.7 E 13 32 7 17 1011.3 1008.5 0.0
18/03:30pm 39.0 32.5 -7.4 5 21.3 SSE 19 33 10 18 1011.3 1008.5 0.0
18/03:00pm 38.6 34.3 -5.3 6 20.8 ENE 9 20 5 11 1011.5 1008.7 0.0
18/02:30pm 38.0 32.5 -5.8 6 20.5 SSE 15 28 8 15 1011.8 1009.0 0.0
18/02:00pm 37.7 31.4 -6.0 6 20.3 SE 19 43 10 23 1012.4 1009.5 0.0
18/01:30pm 37.6 32.8 -6.0 6 20.3 SW 11 20 6 11 1013.0 1010.1 0.0
18/01:00pm 36.5 31.2 -6.8 6 19.7 S 13 28 7 15 1013.5 1010.7 0.0
18/12:30pm 37.0 31.8 -6.5 6 20.0 ENE 13 28 7 15 1014.1 1011.3 0.0
18/12:00pm 36.7 30.9 -4.7 7 19.5 ESE 17 28 9 15 1014.6 1011.8 0.0
18/11:30am 36.3 29.5 -5.0 7 19.3 E 22 33 12 18 1015.3 1012.4 0.0
18/11:00am 35.8 28.8 -3.5 8 18.8 ESE 24 35 13 19 1015.8 1013.0 0.0
18/10:30am 34.4 26.1 -4.6 8 18.1 E 30 41 16 22 1016.2 1013.4 0.0

Other formats

Comma delimited format used in spreadsheet applications
http://www.bom.gov.au/fwo/IDD60801/IDD60801.94238.axf

JavaScript Object Notation format (JSON) in row-major order
http://www.bom.gov.au/fwo/IDD60801/IDD60801.94238.json

Data quality

Most of these data are generated automatically and are frequently updated. Quality checks on data are not normally performed. It is possible for incorrect values to appear. Refer to information at About Latest Weather Observations and please check the disclaimer before using these data.